Time;durP1;ratioP1;P1;durP2;ratioP2;P2;SDS_P1;SDS_P2;PMS_P1;PMS_P2;Temp;Humidity;BMP_temperature;BMP_pressure;BME280_temperature;BME280_humidity;BME280_pressure;Samples;Min_cycle;Max_cycle;Signal;HPM_P1;HPM_P2
2021/04/24 00:00:15;;;;;;;20.95;11.10;;;7.70;89.00;;;;;;5015762;28;20037;-73
2021/04/24 00:02:41;;;;;;;24.75;11.77;;;7.70;28.00;;;;;;5028252;28;20022;-71
2021/04/24 00:05:10;;;;;;;20.95;10.25;;;7.60;99.90;;;;;;5015936;28;20085;-73
2021/04/24 00:07:37;;;;;;;14.88;8.20;;;7.60;1.00;;;;;;5010600;28;20026;-72
2021/04/24 00:10:04;;;;;;;14.02;8.15;;;7.50;99.90;;;;;;5008745;28;20397;-73
2021/04/24 00:12:30;;;;;;;12.88;9.07;;;7.40;99.90;;;;;;4997653;28;20034;-74
2021/04/24 00:14:55;;;;;;;15.40;10.05;;;7.40;99.90;;;;;;5015630;28;20112;-75
2021/04/24 00:17:21;;;;;;;17.67;8.93;;;7.40;1.00;;;;;;5005324;28;20346;-74
2021/04/24 00:19:47;;;;;;;12.27;8.57;;;7.40;1.00;;;;;;5007749;28;20033;-79
2021/04/24 00:22:12;;;;;;;13.50;8.63;;;7.40;1.00;;;;;;4989034;28;20027;-72
2021/04/24 00:24:38;;;;;;;9.63;7.15;;;7.30;1.00;;;;;;5008238;28;20053;-74
2021/04/24 00:27:04;;;;;;;9.88;5.88;;;7.20;1.00;;;;;;5010506;28;20031;-72
2021/04/24 00:29:30;;;;;;;15.88;6.20;;;7.20;20.00;;;;;;5006795;28;20054;-73
2021/04/24 00:31:55;;;;;;;13.38;7.20;;;7.10;80.10;;;;;;5010814;28;20053;-73
2021/04/24 00:34:21;;;;;;;8.30;5.13;;;7.10;99.90;;;;;;5013358;28;20404;-73
2021/04/24 00:36:47;;;;;;;12.48;5.85;;;7.20;99.90;;;;;;5008442;28;20085;-73
2021/04/24 00:39:12;;;;;;;9.32;5.70;;;7.20;69.80;;;;;;5018391;28;20529;-74
2021/04/24 00:41:38;;;;;;;8.13;5.38;;;7.10;99.90;;;;;;5008578;28;20142;-74
2021/04/24 00:44:04;;;;;;;9.70;5.82;;;7.10;99.90;;;;;;4999722;28;20026;-74
2021/04/24 00:46:29;;;;;;;8.13;5.68;;;7.10;99.90;;;;;;5006494;28;20022;-73
2021/04/24 00:48:55;;;;;;;9.77;7.13;;;7.10;99.90;;;;;;5005156;28;20025;-72
2021/04/24 00:51:21;;;;;;;14.68;10.32;;;7.00;99.90;;;;;;5023429;28;20021;-75
2021/04/24 00:53:47;;;;;;;20.10;15.38;;;7.00;99.90;;;;;;5022985;28;20018;-73
2021/04/24 00:56:12;;;;;;;18.90;12.00;;;7.00;99.90;;;;;;5019303;28;20033;-74
2021/04/24 00:58:38;;;;;;;15.23;10.20;;;6.90;99.90;;;;;;5019585;28;20026;-73
2021/04/24 01:01:04;;;;;;;22.02;14.68;;;6.80;99.90;;;;;;5014576;28;20031;-73
2021/04/24 01:03:31;;;;;;;15.27;11.75;;;6.80;99.90;;;;;;5024304;28;20026;-74
2021/04/24 01:05:57;;;;;;;19.73;12.43;;;6.90;99.90;;;;;;5026486;28;20037;-73
2021/04/24 01:08:23;;;;;;;14.52;10.55;;;6.80;99.90;;;;;;5021161;28;20018;-75
2021/04/24 01:10:48;;;;;;;14.70;10.77;;;6.80;99.90;;;;;;5016484;28;20093;-73
2021/04/24 01:13:16;;;;;;;12.00;7.50;;;6.80;99.90;;;;;;5001127;28;20080;-73
2021/04/24 01:15:42;;;;;;;11.00;7.93;;;6.70;99.90;;;;;;5000177;28;20521;-72
2021/04/24 01:18:09;;;;;;;14.88;9.13;;;6.80;99.90;;;;;;5016633;28;20026;-73
2021/04/24 01:20:35;;;;;;;13.80;8.35;;;6.70;99.90;;;;;;5020586;28;20030;-73
2021/04/24 01:23:03;;;;;;;10.93;8.45;;;6.60;99.90;;;;;;5020004;28;20515;-74
2021/04/24 01:25:29;;;;;;;15.02;10.35;;;6.60;99.90;;;;;;5018348;28;20374;-72
2021/04/24 01:27:57;;;;;;;11.77;9.18;;;6.50;99.90;;;;;;5000120;28;20037;-71
2021/04/24 01:30:27;;;;;;;7.88;6.00;;;6.50;99.90;;;;;;5015143;28;20061;-72
2021/04/24 01:32:55;;;;;;;11.18;5.68;;;6.50;99.90;;;;;;5011182;28;20051;-72
2021/04/24 01:35:24;;;;;;;7.80;5.93;;;6.50;99.90;;;;;;5011748;28;20022;-72
2021/04/24 01:37:50;;;;;;;11.25;6.28;;;6.50;99.90;;;;;;5019863;28;20273;-73
2021/04/24 01:40:16;;;;;;;7.68;5.55;;;6.50;99.90;;;;;;5012202;28;20019;-73
2021/04/24 01:42:42;;;;;;;13.43;6.43;;;6.50;99.90;;;;;;4999973;28;20033;-73
2021/04/24 01:45:10;;;;;;;8.98;6.32;;;6.50;99.90;;;;;;5003785;28;20058;-72
2021/04/24 01:47:39;;;;;;;6.55;4.57;;;6.50;99.90;;;;;;5011017;28;20033;-73
2021/04/24 01:50:07;;;;;;;8.80;5.28;;;6.40;99.90;;;;;;5017895;28;20498;-72
2021/04/24 01:52:34;;;;;;;10.65;6.10;;;6.30;1.00;;;;;;5008309;28;20537;-72
2021/04/24 01:55:01;;;;;;;9.50;5.20;;;6.30;1.00;;;;;;5019982;28;20041;-73
2021/04/24 01:57:26;;;;;;;7.72;4.85;;;6.30;1.00;;;;;;5017130;28;20030;-73
2021/04/24 01:59:52;;;;;;;10.55;5.63;;;6.30;1.00;;;;;;5017703;28;20403;-74
2021/04/24 02:02:18;;;;;;;10.05;5.40;;;6.30;1.00;;;;;;5016530;28;20029;-73
2021/04/24 02:04:43;;;;;;;11.13;5.68;;;6.20;1.00;;;;;;5016051;28;20466;-73
2021/04/24 02:07:12;;;;;;;11.68;5.75;;;6.20;1.00;;;;;;5010103;28;20550;-73
2021/04/24 02:09:37;;;;;;;13.68;6.28;;;6.20;1.00;;;;;;5015169;28;20026;-72
2021/04/24 02:12:05;;;;;;;14.73;5.28;;;6.20;1.00;;;;;;5010471;28;20077;-73
2021/04/24 02:14:36;;;;;;;10.43;5.57;;;6.20;1.00;;;;;;4995669;28;20033;-73
2021/04/24 02:17:03;;;;;;;10.68;5.70;;;6.10;15.10;;;;;;4996579;28;20054;-72
2021/04/24 02:19:28;;;;;;;8.32;4.95;;;6.10;19.30;;;;;;5009177;28;20030;-73
2021/04/24 02:21:54;;;;;;;11.57;5.55;;;6.10;22.50;;;;;;5003351;28;20478;-72
2021/04/24 02:24:19;;;;;;;10.07;5.07;;;6.00;35.90;;;;;;4996444;28;20026;-72
2021/04/24 02:26:45;;;;;;;12.05;6.93;;;6.00;56.80;;;;;;5003565;28;20026;-72
2021/04/24 02:29:11;;;;;;;9.88;6.35;;;5.90;64.90;;;;;;5015723;28;20437;-72
2021/04/24 02:31:36;;;;;;;9.05;5.05;;;5.80;93.80;;;;;;5014276;28;20049;-74
2021/04/24 02:34:03;;;;;;;8.30;6.43;;;5.80;99.80;;;;;;5011977;28;20034;-72
2021/04/24 02:36:29;;;;;;;12.65;6.95;;;5.90;94.30;;;;;;5029626;28;20111;-72
2021/04/24 02:38:54;;;;;;;10.80;8.23;;;5.90;83.50;;;;;;5028151;28;20037;-72
2021/04/24 02:41:20;;;;;;;11.77;8.25;;;5.90;66.70;;;;;;5017856;28;20022;-73
2021/04/24 02:43:46;;;;;;;18.05;7.75;;;5.90;72.30;;;;;;5018249;28;20018;-72
2021/04/24 02:46:13;;;;;;;15.23;7.40;;;5.90;73.90;;;;;;5026189;28;20038;-72
2021/04/24 02:48:39;;;;;;;10.45;7.47;;;5.90;86.50;;;;;;5036167;28;20029;-72
2021/04/24 02:51:05;;;;;;;11.82;7.32;;;5.80;94.40;;;;;;5006422;28;20037;-72
2021/04/24 02:53:31;;;;;;;10.40;8.02;;;5.80;99.90;;;;;;4995794;28;20030;-73
2021/04/24 02:55:56;;;;;;;17.45;8.38;;;5.70;99.90;;;;;;4995368;28;20026;-74
2021/04/24 02:58:22;;;;;;;10.93;6.78;;;5.70;99.90;;;;;;5014533;28;20021;-73
2021/04/24 03:00:47;;;;;;;11.48;8.20;;;5.60;99.90;;;;;;4995708;28;20419;-74
2021/04/24 03:03:14;;;;;;;12.80;8.00;;;5.60;99.90;;;;;;5008366;28;20022;-72
2021/04/24 03:05:41;;;;;;;13.18;6.72;;;5.60;99.90;;;;;;5006352;28;20023;-73
2021/04/24 03:08:09;;;;;;;9.25;6.10;;;5.60;99.90;;;;;;4995928;28;20033;-72
2021/04/24 03:10:36;;;;;;;12.38;6.97;;;5.60;99.90;;;;;;5010245;28;20033;-73
2021/04/24 03:13:07;;;;;;;13.07;6.40;;;5.70;99.90;;;;;;5002038;28;20377;-72
2021/04/24 03:15:33;;;;;;;17.00;7.10;;;5.70;99.90;;;;;;4998302;28;20371;-73
2021/04/24 03:17:58;;;;;;;14.65;6.03;;;5.60;99.90;;;;;;5020639;28;20014;-73
2021/04/24 03:20:24;;;;;;;12.13;6.00;;;5.70;99.90;;;;;;5016189;28;20026;-73
2021/04/24 03:22:50;;;;;;;14.18;7.15;;;5.60;99.90;;;;;;5015275;28;20022;-71
2021/04/24 03:25:17;;;;;;;11.80;5.65;;;5.50;99.90;;;;;;5015925;28;20083;-73
2021/04/24 03:27:43;;;;;;;10.57;6.35;;;5.40;99.90;;;;;;5015587;28;20439;-72
2021/04/24 03:30:11;;;;;;;8.88;5.97;;;5.50;99.90;;;;;;5014361;28;20063;-73
2021/04/24 03:32:37;;;;;;;15.50;6.78;;;5.40;99.90;;;;;;5011945;28;20485;-74
2021/04/24 03:35:05;;;;;;;10.07;6.53;;;5.40;99.90;;;;;;4993479;28;20117;-73
2021/04/24 03:37:30;;;;;;;8.80;6.47;;;5.30;99.90;;;;;;4994768;28;20449;-72
2021/04/24 03:39:56;;;;;;;15.88;6.07;;;5.30;99.90;;;;;;4994757;28;20026;-72
2021/04/24 03:42:23;;;;;;;11.32;6.68;;;5.20;99.90;;;;;;4997156;28;20086;-73
2021/04/24 03:44:48;;;;;;;14.95;6.88;;;5.30;99.90;;;;;;4997215;28;20030;-73
2021/04/24 03:47:14;;;;;;;8.93;6.18;;;5.30;99.90;;;;;;5007540;28;20030;-73
2021/04/24 03:49:40;;;;;;;10.55;5.93;;;5.20;99.90;;;;;;5004074;28;20037;-73
2021/04/24 03:52:06;;;;;;;13.18;7.05;;;5.20;99.90;;;;;;5014778;28;20041;-73
2021/04/24 03:54:31;;;;;;;16.88;6.90;;;5.30;99.90;;;;;;5012825;28;20030;-75
2021/04/24 03:56:58;;;;;;;19.33;7.18;;;5.30;99.90;;;;;;5012297;28;20025;-73
2021/04/24 03:59:24;;;;;;;10.88;6.25;;;5.30;99.90;;;;;;5013529;28;20022;-72
2021/04/24 04:01:50;;;;;;;9.93;5.88;;;5.30;99.90;;;;;;5014188;28;20038;-72
2021/04/24 04:04:15;;;;;;;10.77;6.78;;;5.20;99.90;;;;;;5014093;28;20541;-71
2021/04/24 04:06:41;;;;;;;9.40;6.07;;;5.20;99.90;;;;;;5014220;28;20030;-72
2021/04/24 04:09:07;;;;;;;18.17;7.43;;;5.20;99.90;;;;;;5012577;28;20014;-73
2021/04/24 04:11:32;;;;;;;15.93;8.45;;;5.20;99.90;;;;;;5006082;28;20113;-73
2021/04/24 04:13:58;;;;;;;11.88;6.63;;;5.30;99.90;;;;;;5014181;28;20161;-72
2021/04/24 04:16:24;;;;;;;13.75;7.22;;;5.10;99.90;;;;;;5011157;28;20029;-73
2021/04/24 04:18:50;;;;;;;21.75;11.52;;;5.10;99.90;;;;;;5013022;28;20022;-72
2021/04/24 04:21:16;;;;;;;23.48;14.52;;;5.10;99.90;;;;;;5013926;28;20033;-73
2021/04/24 04:23:41;;;;;;;23.55;11.85;;;5.10;99.90;;;;;;5014122;28;20493;-73
2021/04/24 04:26:07;;;;;;;17.63;10.55;;;5.10;99.90;;;;;;5014081;28;20026;-72
2021/04/24 04:28:33;;;;;;;19.90;9.63;;;5.10;99.90;;;;;;5013787;28;20104;-73
2021/04/24 04:30:58;;;;;;;15.23;8.35;;;5.20;99.90;;;;;;5054404;23;20057;-74
2021/04/24 04:33:24;;;;;;;14.75;6.53;;;5.20;99.90;;;;;;5025046;28;20025;-73
2021/04/24 04:35:51;;;;;;;13.45;7.40;;;5.30;99.90;;;;;;5031395;28;20156;-74
2021/04/24 04:38:17;;;;;;;11.43;6.95;;;5.30;99.90;;;;;;5023847;28;20063;-72
2021/04/24 04:40:44;;;;;;;11.65;6.35;;;5.40;99.90;;;;;;5012279;28;20036;-72
2021/04/24 04:43:10;;;;;;;12.23;6.68;;;5.60;99.90;;;;;;5018412;28;20033;-73
2021/04/24 04:45:36;;;;;;;12.20;5.97;;;5.80;99.90;;;;;;5023857;28;20034;-73
2021/04/24 04:48:01;;;;;;;12.27;6.90;;;5.90;99.90;;;;;;5032383;28;20242;-73
2021/04/24 04:50:31;;;;;;;11.77;6.40;;;6.10;99.90;;;;;;5030469;28;20343;-73
2021/04/24 04:52:58;;;;;;;8.88;6.15;;;6.30;83.10;;;;;;5030175;28;20033;-73
2021/04/24 04:55:24;;;;;;;9.95;6.97;;;6.50;57.00;;;;;;5030548;28;20033;-73
2021/04/24 04:57:50;;;;;;;11.65;6.10;;;6.90;1.00;;;;;;5031874;28;20026;-73
2021/04/24 05:00:19;;;;;;;13.85;6.20;;;7.60;1.00;;;;;;5023717;28;20080;-74
2021/04/24 05:02:45;;;;;;;12.88;7.10;;;7.90;99.90;;;;;;5026576;28;20120;-73
2021/04/24 05:05:12;;;;;;;10.43;6.80;;;8.00;99.90;;;;;;5011945;28;20034;-74
2021/04/24 05:07:38;;;;;;;11.52;7.07;;;8.10;99.90;;;;;;5027893;28;20056;-72
2021/04/24 05:10:04;;;;;;;16.02;6.65;;;8.20;99.90;;;;;;5010298;28;20051;-74
2021/04/24 05:12:30;;;;;;;13.30;6.65;;;8.30;99.90;;;;;;5012645;28;20030;-73
2021/04/24 05:14:56;;;;;;;15.68;6.22;;;8.40;99.90;;;;;;5025966;28;20555;-73
2021/04/24 05:17:22;;;;;;;12.23;6.88;;;8.40;99.90;;;;;;5028060;28;20014;-73
2021/04/24 05:19:48;;;;;;;8.05;6.25;;;8.50;99.90;;;;;;5031180;28;20113;-73
2021/04/24 05:22:13;;;;;;;9.55;5.93;;;8.60;74.00;;;;;;5031122;28;20033;-73
2021/04/24 05:24:39;;;;;;;8.60;6.03;;;8.60;29.60;;;;;;5030876;28;20032;-73
2021/04/24 05:27:05;;;;;;;20.40;5.82;;;9.10;1.00;;;;;;5026470;28;20152;-73
2021/04/24 05:29:31;;;;;;;11.18;7.60;;;10.20;99.90;;;;;;5030268;28;20056;-74
2021/04/24 05:31:57;;;;;;;19.02;6.80;;;10.90;1.00;;;;;;5023172;28;20057;-73
2021/04/24 05:34:22;;;;;;;11.70;6.60;;;10.40;1.00;;;;;;5014920;28;20057;-74
2021/04/24 05:36:48;;;;;;;13.82;7.88;;;10.70;99.90;;;;;;5025459;28;20029;-73
2021/04/24 05:39:14;;;;;;;10.80;6.78;;;10.90;99.90;;;;;;5025783;28;20018;-73
2021/04/24 05:41:39;;;;;;;10.13;6.72;;;10.70;1.00;;;;;;5014716;28;20021;-72
2021/04/24 05:44:05;;;;;;;15.23;7.13;;;11.00;99.90;;;;;;5027351;28;20044;-74
2021/04/24 05:46:31;;;;;;;11.38;5.93;;;10.90;99.90;;;;;;5028108;28;20026;-74
2021/04/24 05:48:58;;;;;;;11.48;6.82;;;10.40;99.90;;;;;;5018209;28;20116;-73
2021/04/24 05:51:24;;;;;;;12.57;6.88;;;10.10;99.90;;;;;;5015942;28;20362;-73
2021/04/24 05:53:51;;;;;;;8.77;7.03;;;10.90;99.90;;;;;;5028124;28;20453;-73
2021/04/24 05:56:19;;;;;;;9.38;6.70;;;10.90;99.90;;;;;;5035249;28;20539;-73
2021/04/24 05:58:44;;;;;;;12.00;7.10;;;11.20;9.50;;;;;;5024872;28;20055;-73
2021/04/24 06:01:10;;;;;;;16.90;7.22;;;10.30;99.90;;;;;;5026126;28;20017;-73
2021/04/24 06:03:36;;;;;;;12.63;7.28;;;10.00;6.70;;;;;;5034249;28;20049;-74
2021/04/24 06:06:02;;;;;;;14.38;7.47;;;9.90;73.90;;;;;;5033920;28;20083;-74
2021/04/24 06:08:28;;;;;;;15.68;7.57;;;9.60;99.90;;;;;;5034107;28;20075;-74
2021/04/24 06:10:54;;;;;;;9.88;7.47;;;9.30;70.20;;;;;;5034748;28;20104;-73
2021/04/24 06:13:20;;;;;;;10.18;6.43;;;9.30;99.90;;;;;;5034351;28;20032;-73
2021/04/24 06:15:45;;;;;;;13.27;6.68;;;9.40;1.00;;;;;;5036344;28;20446;-74
2021/04/24 06:18:11;;;;;;;12.18;8.10;;;9.60;27.10;;;;;;5021337;28;20030;-73
2021/04/24 06:20:37;;;;;;;14.88;7.15;;;9.30;38.10;;;;;;5015787;28;20036;-73
2021/04/24 06:23:04;;;;;;;13.32;7.25;;;9.40;99.90;;;;;;5014645;28;20030;-74
2021/04/24 06:25:29;;;;;;;12.63;6.82;;;9.50;99.80;;;;;;5021547;28;20044;-74
2021/04/24 06:27:55;;;;;;;11.95;7.57;;;9.60;99.90;;;;;;5053045;28;20033;-74
2021/04/24 06:30:21;;;;;;;11.02;7.63;;;9.80;99.90;;;;;;5042677;28;20030;-73
2021/04/24 06:32:48;;;;;;;8.32;6.53;;;9.80;99.90;;;;;;5041900;28;20025;-73
2021/04/24 06:35:16;;;;;;;10.63;7.55;;;9.60;7.80;;;;;;5038450;28;20045;-73
2021/04/24 06:37:42;;;;;;;15.93;7.15;;;9.40;1.00;;;;;;5046539;28;20053;-74
2021/04/24 06:40:10;;;;;;;10.57;7.97;;;9.50;99.90;;;;;;5052411;28;20022;-74
2021/04/24 06:42:37;;;;;;;9.23;7.47;;;9.70;83.20;;;;;;5052483;28;20021;-72
2021/04/24 06:45:05;;;;;;;9.18;6.70;;;9.90;1.00;;;;;;5037310;28;20091;-73
2021/04/24 06:47:31;;;;;;;8.07;7.03;;;10.20;99.90;;;;;;5032215;28;20049;-73
2021/04/24 06:49:56;;;;;;;11.68;6.93;;;10.00;99.90;;;;;;5021269;28;20030;-74
2021/04/24 06:52:22;;;;;;;12.93;7.15;;;10.00;99.90;;;;;;5019715;28;20037;-73
2021/04/24 06:54:48;;;;;;;12.07;7.40;;;10.00;99.90;;;;;;5029325;28;20040;-73
2021/04/24 06:57:13;;;;;;;14.63;7.90;;;10.00;99.90;;;;;;5031581;28;20014;-73
2021/04/24 06:59:40;;;;;;;16.35;8.20;;;10.00;99.90;;;;;;5038451;28;20538;-73
2021/04/24 07:02:08;;;;;;;11.85;7.30;;;10.00;99.90;;;;;;5033485;28;20022;-73
2021/04/24 07:04:33;;;;;;;12.98;6.47;;;10.20;12.50;;;;;;5030843;28;20136;-73
2021/04/24 07:06:59;;;;;;;9.52;7.40;;;10.40;1.00;;;;;;5013428;28;20037;-74
2021/04/24 07:09:25;;;;;;;20.25;7.38;;;10.30;1.00;;;;;;5016696;28;20025;-73
2021/04/24 07:11:50;;;;;;;14.77;7.18;;;10.50;99.90;;;;;;5025151;28;20032;-74
2021/04/24 07:14:16;;;;;;;12.15;8.05;;;10.90;99.90;;;;;;5032897;28;20061;-73
2021/04/24 07:16:42;;;;;;;14.80;7.68;;;11.00;74.70;;;;;;5032874;28;20020;-74
2021/04/24 07:19:07;;;;;;;9.45;7.18;;;11.30;1.00;;;;;;5032829;28;20029;-73
2021/04/24 07:21:33;;;;;;;13.90;7.32;;;11.30;1.00;;;;;;5033144;28;20029;-73
2021/04/24 07:23:58;;;;;;;14.63;7.78;;;11.50;99.90;;;;;;5032785;28;20036;-73
2021/04/24 07:26:24;;;;;;;12.63;8.00;;;11.40;99.90;;;;;;5031301;28;20366;-74
2021/04/24 07:28:50;;;;;;;12.38;6.95;;;11.30;1.00;;;;;;5015608;28;20526;-73
2021/04/24 07:31:16;;;;;;;11.93;7.95;;;11.50;1.00;;;;;;5031229;28;20424;-74
2021/04/24 07:33:42;;;;;;;16.55;8.93;;;11.70;99.90;;;;;;5013290;28;20025;-73
2021/04/24 07:36:08;;;;;;;10.65;7.63;;;12.00;99.90;;;;;;5012969;28;20051;-73
2021/04/24 07:38:34;;;;;;;13.45;7.85;;;12.10;99.90;;;;;;5026926;28;20034;-74
2021/04/24 07:40:59;;;;;;;17.45;8.30;;;12.20;99.90;;;;;;5031722;28;20378;-75
2021/04/24 07:43:25;;;;;;;12.35;7.07;;;12.00;99.90;;;;;;5024208;28;20533;-74
2021/04/24 07:45:51;;;;;;;10.23;7.50;;;12.20;99.90;;;;;;5032574;28;20077;-74
2021/04/24 07:48:16;;;;;;;13.90;7.60;;;12.20;99.90;;;;;;5032411;28;20442;-73
2021/04/24 07:50:42;;;;;;;11.80;7.28;;;12.30;99.90;;;;;;5031796;28;20022;-75
2021/04/24 07:53:07;;;;;;;14.18;7.78;;;12.70;99.90;;;;;;5032169;28;20397;-74
2021/04/24 07:55:33;;;;;;;11.30;7.85;;;12.80;96.60;;;;;;5032511;28;20405;-73
2021/04/24 07:57:59;;;;;;;16.85;7.25;;;13.00;48.00;;;;;;5032717;28;20432;-74
2021/04/24 08:00:25;;;;;;;10.57;7.20;;;13.20;4.30;;;;;;5033001;28;20052;-73
2021/04/24 08:02:51;;;;;;;10.02;6.47;;;13.30;1.00;;;;;;5033044;28;20488;-74
2021/04/24 08:05:17;;;;;;;13.93;7.45;;;13.20;1.00;;;;;;5033324;28;20057;-73
2021/04/24 08:07:47;;;;;;;16.45;7.35;;;13.40;1.00;;;;;;5032571;28;20029;-73
2021/04/24 08:10:13;;;;;;;10.85;7.00;;;13.30;1.00;;;;;;5024334;28;20022;-74
2021/04/24 08:12:39;;;;;;;9.50;7.03;;;13.50;1.00;;;;;;5029465;28;20041;-73
2021/04/24 08:15:08;;;;;;;12.40;6.75;;;13.50;1.00;;;;;;5022608;28;20033;-77
2021/04/24 08:17:33;;;;;;;14.25;7.18;;;13.60;99.90;;;;;;5028578;28;20023;-76
2021/04/24 08:19:59;;;;;;;9.30;6.50;;;13.90;99.90;;;;;;5020234;28;20026;-74
2021/04/24 08:22:26;;;;;;;9.00;6.60;;;13.70;99.90;;;;;;5021664;28;20026;-74
2021/04/24 08:24:52;;;;;;;9.77;7.32;;;13.70;99.90;;;;;;5018560;28;20034;-75
2021/04/24 08:27:17;;;;;;;11.82;6.40;;;13.90;99.90;;;;;;5013256;28;20032;-74
2021/04/24 08:29:43;;;;;;;14.20;8.20;;;14.20;99.90;;;;;;5024460;28;20025;-75
2021/04/24 08:32:09;;;;;;;10.93;7.07;;;14.30;99.90;;;;;;5026210;28;20525;-74
2021/04/24 08:34:35;;;;;;;8.32;6.32;;;14.50;99.90;;;;;;5038425;28;20060;-72
2021/04/24 08:37:02;;;;;;;9.60;6.60;;;14.50;99.90;;;;;;5048177;28;20030;-75
2021/04/24 08:39:28;;;;;;;10.07;6.68;;;14.70;99.90;;;;;;5032790;28;20427;-73
2021/04/24 08:41:53;;;;;;;8.60;6.40;;;14.60;99.90;;;;;;5031461;28;20040;-73
2021/04/24 08:44:19;;;;;;;11.02;6.50;;;14.80;99.90;;;;;;5025429;28;20112;-74
2021/04/24 08:46:52;;;;;;;8.75;6.68;;;15.00;99.90;;;;;;5033122;28;20079;-76
2021/04/24 08:49:18;;;;;;;11.10;6.88;;;15.00;99.90;;;;;;5032757;28;20026;-74
2021/04/24 08:51:45;;;;;;;8.02;6.47;;;15.10;99.90;;;;;;5019475;28;20500;-75
2021/04/24 08:54:11;;;;;;;10.55;7.47;;;15.10;99.90;;;;;;5026305;28;20087;-75
2021/04/24 08:56:36;;;;;;;8.02;6.32;;;15.00;99.90;;;;;;5022048;28;20448;-74
2021/04/24 08:59:02;;;;;;;15.00;8.52;;;15.10;99.90;;;;;;5012949;28;20101;-75
2021/04/24 09:01:28;;;;;;;8.77;6.80;;;15.30;99.90;;;;;;5014803;28;20171;-76
2021/04/24 09:03:54;;;;;;;10.07;8.77;;;15.60;99.90;;;;;;5015704;28;20161;-75
2021/04/24 09:06:21;;;;;;;11.10;7.63;;;15.70;99.90;;;;;;5016461;28;20029;-72
2021/04/24 09:09:03;;;;;;;10.43;6.38;;;15.60;98.20;;;;;;5034859;28;20468;-73
2021/04/24 09:11:30;;;;;;;11.75;6.95;;;16.00;88.70;;;;;;5031520;28;20037;-73
2021/04/24 09:14:02;;;;;;;15.00;7.18;;;16.20;74.00;;;;;;5035834;28;20025;-73
2021/04/24 09:16:28;;;;;;;13.20;8.05;;;16.10;64.20;;;;;;5035894;28;20432;-72
2021/04/24 09:18:55;;;;;;;10.25;6.95;;;16.00;59.10;;;;;;5036439;28;20029;-73
2021/04/24 09:21:23;;;;;;;10.88;7.00;;;16.00;50.50;;;;;;5035659;28;20032;-72
2021/04/24 09:23:48;;;;;;;10.82;7.18;;;15.70;46.00;;;;;;5036878;28;20030;-71
2021/04/24 09:26:14;;;;;;;8.82;6.65;;;15.90;47.70;;;;;;5035830;28;20096;-70
2021/04/24 09:28:47;;;;;;;13.02;7.97;;;16.00;43.20;;;;;;5035684;28;20025;-72
2021/04/24 09:31:12;;;;;;;9.00;6.55;;;16.20;44.10;;;;;;5036091;28;20033;-72
2021/04/24 09:33:39;;;;;;;10.52;7.78;;;16.60;40.80;;;;;;5019059;28;20521;-74
2021/04/24 09:36:07;;;;;;;9.20;7.18;;;16.80;37.80;;;;;;5027108;28;20037;-71
2021/04/24 09:38:36;;;;;;;10.18;6.88;;;16.70;34.90;;;;;;5026338;28;20033;-72
2021/04/24 09:41:28;;;;;;;13.05;6.97;;;16.90;27.70;;;;;;5027925;28;20018;-72
2021/04/24 09:44:09;;;;;;;10.73;7.00;;;17.10;29.00;;;;;;5047367;28;20014;-71
2021/04/24 09:46:44;;;;;;;10.40;6.55;;;17.30;26.30;;;;;;4997941;28;20069;-72
2021/04/24 09:49:13;;;;;;;12.45;6.65;;;17.20;22.80;;;;;;5013758;28;20053;-74
2021/04/24 09:51:50;;;;;;;10.32;7.13;;;17.40;19.00;;;;;;5021687;28;20045;-74
2021/04/24 09:54:17;;;;;;;10.93;7.30;;;17.40;11.90;;;;;;5037058;28;20025;-76
2021/04/24 09:57:05;;;;;;;9.65;7.20;;;17.20;10.10;;;;;;5032870;28;20034;-75
2021/04/24 09:59:32;;;;;;;11.85;7.80;;;17.40;10.30;;;;;;5015481;28;20030;-77
2021/04/24 10:02:04;;;;;;;11.52;8.02;;;17.50;15.40;;;;;;5017095;28;20617;-76
2021/04/24 10:04:30;;;;;;;11.38;8.48;;;17.60;15.70;;;;;;5017122;28;20025;-77
2021/04/24 10:06:56;;;;;;;8.73;7.40;;;17.20;16.60;;;;;;5018415;28;20060;-76
2021/04/24 10:09:23;;;;;;;8.85;6.28;;;17.10;15.60;;;;;;5016642;28;20022;-78
2021/04/24 10:11:52;;;;;;;10.75;7.85;;;17.40;11.10;;;;;;5019878;28;20104;-80
2021/04/24 10:14:30;;;;;;;9.48;7.15;;;17.70;9.80;;;;;;5021314;28;20021;-77
2021/04/24 10:16:57;;;;;;;9.68;6.35;;;17.70;5.30;;;;;;5020928;28;20048;-77
2021/04/24 10:19:24;;;;;;;15.15;7.93;;;17.60;1.80;;;;;;5016718;28;20053;-77
2021/04/24 10:21:50;;;;;;;10.25;7.68;;;17.80;2.40;;;;;;5017007;28;20382;-76
2021/04/24 10:24:15;;;;;;;10.52;7.15;;;18.10;1.70;;;;;;5013462;28;20022;-80
2021/04/24 10:26:43;;;;;;;13.05;7.20;;;18.50;1.00;;;;;;5017666;28;20033;-78
2021/04/24 10:29:09;;;;;;;11.70;6.32;;;18.80;1.00;;;;;;5011398;28;20032;-79
2021/04/24 10:31:46;;;;;;;17.52;7.43;;;18.90;1.00;;;;;;5036471;22;20046;-77
2021/04/24 10:34:13;;;;;;;12.98;8.02;;;18.60;1.00;;;;;;5020327;28;20018;-76
2021/04/24 10:36:38;;;;;;;12.02;7.07;;;18.30;1.00;;;;;;5014591;28;20034;-74
2021/04/24 10:39:37;;;;;;;10.90;7.85;;;18.30;1.00;;;;;;5003577;28;20030;-72
2021/04/24 10:42:08;;;;;;;10.02;6.93;;;18.20;1.00;;;;;;4984842;28;20078;-72
2021/04/24 10:44:53;;;;;;;10.43;7.07;;;18.20;1.00;;;;;;4994902;28;20023;-74
2021/04/24 10:47:53;;;;;;;9.05;7.50;;;18.50;1.00;;;;;;4981179;28;20266;-73
2021/04/24 10:50:22;;;;;;;8.55;6.35;;;18.80;1.00;;;;;;5013538;28;20221;-73
2021/04/24 10:52:50;;;;;;;9.63;7.20;;;18.60;1.00;;;;;;4980140;28;20023;-74
2021/04/24 10:55:18;;;;;;;7.63;6.65;;;18.70;1.00;;;;;;4988922;28;20066;-74
2021/04/24 10:57:44;;;;;;;7.80;6.47;;;18.80;1.00;;;;;;4988888;28;20093;-73
2021/04/24 11:00:22;;;;;;;10.68;7.55;;;18.50;1.00;;;;;;4982660;28;20055;-75
2021/04/24 11:02:48;;;;;;;11.55;8.20;;;17.90;1.00;;;;;;4982972;28;20037;-74
2021/04/24 11:05:19;;;;;;;10.85;6.95;;;17.70;1.00;;;;;;4997118;28;20030;-74
2021/04/24 11:07:45;;;;;;;10.03;7.17;;;18.00;1.00;;;;;;5007635;28;20016;-76
2021/04/24 11:10:10;;;;;;;10.32;7.22;;;18.50;1.00;;;;;;5014441;28;20273;-76
2021/04/24 11:12:41;;;;;;;7.25;6.25;;;18.70;1.00;;;;;;5029931;28;20018;-76
2021/04/24 11:15:08;;;;;;;10.32;7.10;;;18.70;1.00;;;;;;5004607;28;20045;-78
2021/04/24 11:17:36;;;;;;;11.00;7.40;;;18.60;1.00;;;;;;5001586;28;20026;-74
2021/04/24 11:20:03;;;;;;;8.20;6.65;;;18.80;1.00;;;;;;4976137;28;20029;-75
2021/04/24 11:22:42;;;;;;;8.95;7.30;;;18.90;1.00;;;;;;4979541;28;20034;-75
2021/04/24 11:25:28;;;;;;;9.45;7.60;;;18.80;1.00;;;;;;4977498;28;20031;-75
2021/04/24 11:28:09;;;;;;;8.57;6.90;;;18.40;1.00;;;;;;4976445;28;20149;-74
2021/04/24 11:31:05;;;;;;;9.25;7.18;;;18.10;1.00;;;;;;4993555;28;20040;-75
2021/04/24 11:33:38;;;;;;;11.70;7.80;;;18.20;1.00;;;;;;4991495;28;20445;-75
2021/04/24 11:36:12;;;;;;;9.45;6.82;;;18.70;1.00;;;;;;4996734;28;20026;-76
2021/04/24 11:41:39;;;;;;;9.15;6.53;;;19.10;1.00;;;;;;4997640;28;20113;-75
2021/04/24 11:44:26;;;;;;;11.40;6.60;;;19.10;1.00;;;;;;4998621;28;20474;-75
2021/04/24 11:46:56;;;;;;;9.02;6.20;;;19.00;1.00;;;;;;5008406;28;20022;-74
2021/04/24 11:49:24;;;;;;;8.77;6.53;;;19.10;1.00;;;;;;5006903;28;20026;-75
2021/04/24 11:51:58;;;;;;;11.27;7.50;;;19.10;1.00;;;;;;4997368;28;20038;-75
2021/04/24 11:54:38;;;;;;;8.02;6.43;;;19.10;1.00;;;;;;5013123;28;20027;-75
2021/04/24 11:57:11;;;;;;;7.95;6.78;;;18.90;1.00;;;;;;5007731;28;20478;-74
2021/04/24 11:59:39;;;;;;;8.73;6.30;;;19.10;1.00;;;;;;5004207;28;20585;-75
2021/04/24 12:02:20;;;;;;;8.60;5.97;;;19.20;1.00;;;;;;4997347;28;20050;-75
2021/04/24 12:04:49;;;;;;;11.98;7.53;;;19.00;1.00;;;;;;4996893;28;20037;-75
2021/04/24 12:07:17;;;;;;;8.95;6.97;;;18.80;1.00;;;;;;4996277;28;20034;-75
2021/04/24 12:09:58;;;;;;;7.38;6.57;;;19.10;1.00;;;;;;4995624;28;20041;-75
2021/04/24 12:12:35;;;;;;;11.95;7.32;;;19.40;1.00;;;;;;4997703;28;20030;-75
2021/04/24 12:15:22;;;;;;;8.25;6.20;;;18.90;1.00;;;;;;4997269;28;20026;-75
2021/04/24 12:18:05;;;;;;;9.02;6.57;;;19.20;1.00;;;;;;5007523;28;20090;-75
2021/04/24 12:20:42;;;;;;;8.45;6.45;;;19.30;1.00;;;;;;5007235;28;20023;-75
2021/04/24 12:23:11;;;;;;;12.95;6.03;;;19.50;1.00;;;;;;4997332;28;20030;-76
2021/04/24 12:25:39;;;;;;;11.00;7.03;;;19.80;1.00;;;;;;5003669;28;20116;-75
2021/04/24 12:28:07;;;;;;;7.90;5.55;;;19.90;1.00;;;;;;5000852;28;20031;-76
2021/04/24 12:30:38;;;;;;;12.07;7.38;;;19.60;1.00;;;;;;4998982;28;20379;-75
2021/04/24 12:33:07;;;;;;;7.50;6.10;;;19.30;1.00;;;;;;5000418;28;20026;-75
2021/04/24 12:35:38;;;;;;;9.48;6.63;;;19.70;1.00;;;;;;4997369;28;20034;-76
2021/04/24 12:38:06;;;;;;;;;;;19.70;1.00;;;;;;4999140;28;20063;-78
2021/04/24 12:40:37;;;;;;;14.35;6.72;;;19.70;1.00;;;;;;4998259;28;19996;-75
2021/04/24 12:43:05;;;;;;;11.05;5.90;;;19.90;1.00;;;;;;4999220;28;20022;-75
2021/04/24 12:45:32;;;;;;;6.28;5.47;;;19.70;1.00;;;;;;4999018;28;20058;-76
2021/04/24 12:48:04;;;;;;;8.43;6.40;;;19.60;1.00;;;;;;5000188;28;20037;-74
2021/04/24 12:50:38;;;;;;;8.40;6.50;;;19.80;1.00;;;;;;5000173;28;20047;-75
2021/04/24 12:53:06;;;;;;;8.00;6.65;;;19.60;1.00;;;;;;5000147;28;20030;-75